createdAt,value
2022-12-19T00:01:59.605Z,20.08
2022-12-19T00:04:26.011Z,22.77
2022-12-19T00:06:52.301Z,21.20
2022-12-19T00:09:18.572Z,22.33
2022-12-19T00:11:44.927Z,21.98
2022-12-19T00:14:11.724Z,21.58
2022-12-19T00:16:38.155Z,21.75
2022-12-19T00:19:05.066Z,21.85
2022-12-19T00:21:35.043Z,21.23
2022-12-19T00:24:01.797Z,23.10
2022-12-19T00:26:29.654Z,22.83
2022-12-19T00:28:58.115Z,24.55
2022-12-19T00:31:25.543Z,21.63
2022-12-19T00:33:52.138Z,23.70
2022-12-19T00:36:23.224Z,22.42
2022-12-19T00:38:51.309Z,21.27
2022-12-19T00:41:25.147Z,23.00
2022-12-19T00:43:56.785Z,22.75
2022-12-19T00:46:23.344Z,22.25
2022-12-19T00:48:49.780Z,22.83
2022-12-19T00:51:17.351Z,21.95
2022-12-19T00:53:44.792Z,22.00
2022-12-19T00:56:12.805Z,22.58
2022-12-19T00:58:44.964Z,22.92
2022-12-19T01:01:15.167Z,19.67
2022-12-19T01:03:58.063Z,22.83
2022-12-19T01:06:28.505Z,19.73
2022-12-19T01:08:55.457Z,20.20
2022-12-19T01:11:42.085Z,21.05
2022-12-19T01:14:08.407Z,19.55
2022-12-19T01:16:34.788Z,19.63
2022-12-19T01:19:01.153Z,18.40
2022-12-19T01:21:29.947Z,19.33
2022-12-19T01:23:56.272Z,21.60
2022-12-19T01:26:22.620Z,21.08
2022-12-19T01:28:48.947Z,21.02
2022-12-19T01:31:15.394Z,23.27
2022-12-19T01:33:42.745Z,22.70
2022-12-19T01:36:10.798Z,22.20
2022-12-19T01:38:37.270Z,22.08
2022-12-19T01:41:03.989Z,22.65
2022-12-19T01:43:31.110Z,21.80
2022-12-19T01:45:59.023Z,22.98
2022-12-19T01:48:30.368Z,23.00
2022-12-19T01:51:01.919Z,23.02
2022-12-19T01:53:30.367Z,23.08
2022-12-19T01:55:56.714Z,23.00
2022-12-19T01:58:23.107Z,22.05
2022-12-19T02:00:49.675Z,24.55
2022-12-19T02:03:22.343Z,24.25
2022-12-19T02:05:49.260Z,24.67
2022-12-19T02:08:16.220Z,25.50
2022-12-19T02:10:42.520Z,26.38
2022-12-19T02:13:09.185Z,24.23
2022-12-19T02:15:43.561Z,25.60
2022-12-19T02:18:15.685Z,25.45
2022-12-19T02:20:57.194Z,24.67
2022-12-19T02:23:42.312Z,24.40
2022-12-19T02:26:20.959Z,25.40
2022-12-19T02:29:08.081Z,26.65
2022-12-19T02:31:36.437Z,25.92
2022-12-19T02:34:05.411Z,26.05
2022-12-19T02:36:38.912Z,24.05
2022-12-19T02:39:25.047Z,23.02
2022-12-19T02:41:56.091Z,23.75
2022-12-19T02:44:29.959Z,23.80
2022-12-19T02:46:57.883Z,24.40
2022-12-19T02:49:31.056Z,25.20
2022-12-19T02:51:57.803Z,22.88
2022-12-19T02:54:24.449Z,25.45
2022-12-19T02:57:06.419Z,22.63
2022-12-19T02:59:41.975Z,23.30
2022-12-19T03:02:17.544Z,23.40
2022-12-19T03:07:16.814Z,21.60
2022-12-19T03:10:03.684Z,22.38
2022-12-19T03:12:32.892Z,21.55
2022-12-19T03:14:59.839Z,23.10
2022-12-19T03:17:26.265Z,22.67
2022-12-19T03:19:52.532Z,22.92
2022-12-19T03:22:19.025Z,24.63
2022-12-19T03:24:45.359Z,24.48
2022-12-19T03:27:14.598Z,24.60
2022-12-19T03:29:47.444Z,24.13
2022-12-19T03:32:14.923Z,24.27
2022-12-19T03:34:46.284Z,22.15
2022-12-19T03:37:14.972Z,22.90
2022-12-19T03:39:42.734Z,23.20
2022-12-19T03:42:28.804Z,23.92
2022-12-19T03:44:55.767Z,24.10
2022-12-19T03:47:32.725Z,23.20
2022-12-19T03:49:59.098Z,21.73
2022-12-19T03:52:45.619Z,23.42
2022-12-19T03:55:19.570Z,20.38
2022-12-19T03:58:15.342Z,22.25
2022-12-19T04:00:43.715Z,21.13
2022-12-19T04:03:11.085Z,21.08
2022-12-19T04:05:38.288Z,21.40
2022-12-19T04:08:05.627Z,19.95
2022-12-19T04:10:35.043Z,21.33
2022-12-19T04:13:04.651Z,19.88
2022-12-19T04:15:47.495Z,19.27
2022-12-19T04:18:14.335Z,18.20
2022-12-19T04:20:44.236Z,18.58
2022-12-19T04:23:16.407Z,15.93
2022-12-19T04:25:47.345Z,19.27
2022-12-19T04:28:17.124Z,16.33
2022-12-19T04:30:45.040Z,17.77
2022-12-19T04:33:12.071Z,16.95
2022-12-19T04:35:38.413Z,17.40
2022-12-19T04:38:04.703Z,15.70
2022-12-19T04:40:39.341Z,16.45
2022-12-19T04:43:08.365Z,18.42
2022-12-19T04:45:34.781Z,16.95
2022-12-19T04:48:02.218Z,17.02
2022-12-19T04:50:28.523Z,19.20
2022-12-19T04:52:57.208Z,16.45
2022-12-19T04:55:23.823Z,18.77
2022-12-19T04:57:50.193Z,18.40
2022-12-19T05:00:16.675Z,17.05
2022-12-19T05:02:44.518Z,19.30
2022-12-19T05:05:11.047Z,17.65
2022-12-19T05:07:37.388Z,18.15
2022-12-19T05:10:04.607Z,18.35
2022-12-19T05:12:30.934Z,18.25
2022-12-19T05:14:57.336Z,18.73
2022-12-19T05:17:23.665Z,17.95
2022-12-19T05:19:50.198Z,17.30
2022-12-19T05:22:16.498Z,15.35
2022-12-19T05:24:42.777Z,17.23
2022-12-19T05:27:09.274Z,16.38
2022-12-19T05:29:35.572Z,16.50
2022-12-19T05:32:01.948Z,16.52
2022-12-19T05:34:28.307Z,15.40
2022-12-19T05:36:54.741Z,15.63
2022-12-19T05:39:21.182Z,14.20
2022-12-19T05:41:49.150Z,15.82
2022-12-19T05:44:16.064Z,14.98
2022-12-19T05:46:42.863Z,13.73
2022-12-19T05:49:09.203Z,16.58
2022-12-19T05:51:35.536Z,15.68
2022-12-19T05:54:01.838Z,16.52
2022-12-19T05:56:28.104Z,15.38
2022-12-19T05:58:54.651Z,14.27
2022-12-19T06:01:22.229Z,15.38
2022-12-19T06:03:49.088Z,15.57
2022-12-19T06:06:16.933Z,15.38
2022-12-19T06:08:43.873Z,15.75
2022-12-19T06:11:11.820Z,15.02
2022-12-19T06:13:38.692Z,16.60
2022-12-19T06:16:06.793Z,15.73
2022-12-19T06:18:33.480Z,15.00
2022-12-19T06:21:04.400Z,15.13
2022-12-19T06:23:31.872Z,17.13
2022-12-19T06:25:58.532Z,16.60
2022-12-19T06:28:25.528Z,17.30
2022-12-19T06:30:51.841Z,17.00
2022-12-19T06:33:18.264Z,16.27
2022-12-19T06:35:44.558Z,16.05
2022-12-19T06:38:11.031Z,15.48
2022-12-19T06:40:59.850Z,16.20
2022-12-19T06:43:26.365Z,17.75
2022-12-19T06:45:52.771Z,13.90
2022-12-19T06:48:19.069Z,16.77
2022-12-19T06:50:45.582Z,17.00
2022-12-19T06:53:12.025Z,16.50
2022-12-19T06:55:39.267Z,15.25
2022-12-19T06:58:05.672Z,17.17
2022-12-19T07:00:34.978Z,16.88
2022-12-19T07:03:01.834Z,14.70
2022-12-19T07:05:29.678Z,16.35
2022-12-19T07:07:56.026Z,17.38
2022-12-19T07:10:22.538Z,17.33
2022-12-19T07:12:49.052Z,20.13
2022-12-19T07:15:15.556Z,18.77
2022-12-19T07:17:42.143Z,20.42
2022-12-19T07:20:08.894Z,20.67
2022-12-19T07:22:35.422Z,18.30
2022-12-19T07:25:02.597Z,18.42
2022-12-19T07:27:35.464Z,20.08
2022-12-19T07:30:03.126Z,18.88
2022-12-19T07:32:29.474Z,20.52
2022-12-19T07:34:55.721Z,19.48
2022-12-19T07:37:21.993Z,16.90
2022-12-19T07:39:48.797Z,20.33
2022-12-19T07:42:15.105Z,17.77
2022-12-19T07:44:41.966Z,24.30
2022-12-19T07:47:10.000Z,19.10
2022-12-19T07:49:36.355Z,18.05
2022-12-19T07:52:02.706Z,18.58
2022-12-19T07:54:29.139Z,21.73
2022-12-19T07:56:55.445Z,18.05
2022-12-19T07:59:27.306Z,14.18
2022-12-19T08:01:56.100Z,15.93
2022-12-19T08:04:22.674Z,17.15
2022-12-19T08:06:49.007Z,16.55
2022-12-19T08:09:15.348Z,15.98
2022-12-19T08:11:42.171Z,15.57
2022-12-19T08:14:08.452Z,15.63
2022-12-19T08:16:55.581Z,13.13
2022-12-19T08:19:27.259Z,15.20
2022-12-19T08:21:54.118Z,13.65
2022-12-19T08:24:20.453Z,11.07
2022-12-19T08:26:47.837Z,15.27
2022-12-19T08:29:14.314Z,15.32
2022-12-19T08:31:41.056Z,15.77
2022-12-19T08:34:07.310Z,14.73
2022-12-19T08:36:34.457Z,14.32
2022-12-19T08:39:00.791Z,14.73
2022-12-19T08:41:27.126Z,15.48
2022-12-19T08:43:54.378Z,15.25
2022-12-19T08:46:21.060Z,13.82
2022-12-19T08:48:47.563Z,14.57
2022-12-19T08:51:15.524Z,17.27
2022-12-19T08:53:42.874Z,13.45
2022-12-19T08:56:16.643Z,15.55
2022-12-19T08:58:43.128Z,13.80
2022-12-19T09:01:13.800Z,13.93
2022-12-19T09:03:49.039Z,12.82
2022-12-19T09:06:26.727Z,13.20
2022-12-19T09:08:54.767Z,12.18
2022-12-19T09:11:26.698Z,13.80
2022-12-19T09:13:55.035Z,12.35
2022-12-19T09:16:22.339Z,11.48
2022-12-19T09:18:50.294Z,10.57
2022-12-19T09:21:17.602Z,11.45
2022-12-19T09:23:47.717Z,12.25
2022-12-19T09:26:16.215Z,10.98
2022-12-19T09:28:43.056Z,9.98
2022-12-19T09:31:15.590Z,11.90
2022-12-19T09:33:43.792Z,10.70
2022-12-19T09:36:18.245Z,11.00
2022-12-19T09:38:45.647Z,10.65
2022-12-19T09:41:30.518Z,11.15
2022-12-19T09:44:03.434Z,10.48
2022-12-19T09:46:42.025Z,10.68
2022-12-19T09:49:14.515Z,8.73
2022-12-19T09:51:52.271Z,10.15
2022-12-19T09:54:23.482Z,9.80
2022-12-19T09:56:52.666Z,11.60
2022-12-19T09:59:39.821Z,10.00
2022-12-19T10:02:15.720Z,9.57
2022-12-19T10:04:47.599Z,10.18
2022-12-19T10:07:51.335Z,10.27
2022-12-19T10:12:18.055Z,10.68
2022-12-19T10:12:58.611Z,9.98
2022-12-19T10:15:43.032Z,9.52
2022-12-19T10:18:18.544Z,9.45
2022-12-19T10:20:52.357Z,9.90
2022-12-19T10:23:25.856Z,8.77
2022-12-19T10:25:55.613Z,9.27
2022-12-19T10:28:41.024Z,9.38
2022-12-19T10:31:22.828Z,10.68
2022-12-19T10:33:55.881Z,8.52
2022-12-19T10:36:42.055Z,9.65
2022-12-19T10:39:14.479Z,7.85
2022-12-19T10:41:44.300Z,8.80
2022-12-19T10:44:12.127Z,8.05
2022-12-19T10:46:38.529Z,8.23
2022-12-19T10:49:14.159Z,7.53
2022-12-19T10:54:06.779Z,6.57
2022-12-19T10:56:37.583Z,7.13
2022-12-19T10:59:16.119Z,7.50
2022-12-19T11:01:43.062Z,6.38
2022-12-19T11:04:30.458Z,6.63
2022-12-19T11:07:03.368Z,6.60
2022-12-19T11:09:29.686Z,7.22
2022-12-19T11:13:14.435Z,6.72
2022-12-19T11:20:07.476Z,7.97
2022-12-19T11:28:02.548Z,6.65
2022-12-19T11:29:42.718Z,7.60
2022-12-19T11:29:55.171Z,6.65
2022-12-19T11:30:38.166Z,6.50
2022-12-19T11:30:59.585Z,7.75
2022-12-19T11:32:32.153Z,7.00
2022-12-19T11:34:23.990Z,7.68
2022-12-19T11:37:10.984Z,8.40
2022-12-19T11:39:42.083Z,6.63
2022-12-19T11:42:11.438Z,7.45
2022-12-19T11:44:40.737Z,7.82
2022-12-19T11:47:22.553Z,8.13
2022-12-19T11:49:51.724Z,8.82
2022-12-19T11:53:02.330Z,8.82
2022-12-19T11:55:25.049Z,8.00
2022-12-19T11:57:51.882Z,9.13
2022-12-19T12:00:20.775Z,7.65
2022-12-19T12:02:49.923Z,7.60
2022-12-19T12:05:22.752Z,8.00
2022-12-19T12:09:42.679Z,6.85
2022-12-19T12:15:13.581Z,7.85
2022-12-19T12:22:52.492Z,7.05
2022-12-19T12:31:01.056Z,6.55
2022-12-19T12:31:13.161Z,6.50
2022-12-19T12:31:17.815Z,5.72
2022-12-19T12:31:48.512Z,4.85
2022-12-19T12:32:00.362Z,6.80
2022-12-19T12:35:56.810Z,5.97
2022-12-19T12:40:26.359Z,5.43
2022-12-19T12:42:59.044Z,5.28
2022-12-19T12:45:36.108Z,5.88
2022-12-19T12:50:28.768Z,5.68
2022-12-19T12:52:56.857Z,5.68
2022-12-19T12:55:31.527Z,5.72
2022-12-19T12:57:58.252Z,5.87
2022-12-19T13:00:24.666Z,5.78
2022-12-19T13:02:57.062Z,4.93
2022-12-19T13:06:01.780Z,4.10
2022-12-19T13:08:47.469Z,4.75
2022-12-19T13:11:38.194Z,5.13
2022-12-19T13:14:05.178Z,4.85
2022-12-19T13:16:44.103Z,4.65
2022-12-19T13:19:19.580Z,4.80
2022-12-19T13:24:16.178Z,4.30
2022-12-19T13:26:44.661Z,4.40
2022-12-19T13:29:30.110Z,4.50
2022-12-19T13:32:13.324Z,4.28
2022-12-19T13:34:44.745Z,4.00
2022-12-19T13:39:54.779Z,4.10
2022-12-19T13:40:33.485Z,4.05
2022-12-19T13:43:20.852Z,4.18
2022-12-19T13:46:07.203Z,4.55
2022-12-19T13:48:40.243Z,4.10
2022-12-19T13:51:08.058Z,3.63
2022-12-19T13:53:35.065Z,4.55
2022-12-19T13:56:04.673Z,4.35
2022-12-19T13:58:37.500Z,4.30
2022-12-19T14:01:20.843Z,4.40
2022-12-19T14:03:48.354Z,5.78
2022-12-19T14:06:20.635Z,4.47
2022-12-19T14:08:47.923Z,4.25
2022-12-19T14:12:25.613Z,5.20
2022-12-19T14:14:46.163Z,4.75
2022-12-19T14:17:14.131Z,4.40
2022-12-19T14:19:42.256Z,4.28
2022-12-19T14:22:20.747Z,5.07
2022-12-19T14:24:55.383Z,4.55
2022-12-19T14:28:26.778Z,4.57
2022-12-19T14:30:41.461Z,4.68
2022-12-19T14:33:45.283Z,4.70
2022-12-19T14:36:12.225Z,3.88
2022-12-19T14:39:25.062Z,4.18
2022-12-19T14:41:45.886Z,4.10
2022-12-19T14:52:35.169Z,4.53
2022-12-19T14:53:17.457Z,4.40
2022-12-19T14:54:12.268Z,4.45
2022-12-19T14:54:50.557Z,4.22
2022-12-19T14:56:03.897Z,4.18
2022-12-19T14:58:52.968Z,4.43
2022-12-19T15:01:24.406Z,4.00
2022-12-19T15:04:49.168Z,4.13
2022-12-19T15:07:07.036Z,3.30
2022-12-19T15:10:57.612Z,4.07
2022-12-19T15:14:48.363Z,3.97
2022-12-19T15:15:45.665Z,3.67
2022-12-19T15:18:39.313Z,4.95
2022-12-19T15:21:08.163Z,3.33
2022-12-19T15:23:34.568Z,3.20
2022-12-19T15:26:04.607Z,3.83
2022-12-19T15:28:43.150Z,2.95
2022-12-19T15:31:18.455Z,3.90
2022-12-19T15:34:14.471Z,4.05
2022-12-19T15:36:31.080Z,3.92
2022-12-19T15:38:58.018Z,3.67
2022-12-19T15:41:24.985Z,4.20
2022-12-19T15:44:07.735Z,3.83
2022-12-19T15:46:34.206Z,3.90
2022-12-19T15:49:01.291Z,3.78
2022-12-19T15:51:27.831Z,3.60
2022-12-19T15:53:56.938Z,3.65
2022-12-19T15:56:33.745Z,6.88
2022-12-19T15:59:00.867Z,4.82
2022-12-19T16:01:27.946Z,3.78
2022-12-19T16:03:56.054Z,8.32
2022-12-19T16:06:22.619Z,3.75
2022-12-19T16:08:48.962Z,3.47
2022-12-19T16:11:19.587Z,3.58
2022-12-19T16:13:51.267Z,3.85
2022-12-19T16:16:17.740Z,4.13
2022-12-19T16:18:45.300Z,3.83
2022-12-19T16:21:17.532Z,3.75
2022-12-19T16:23:44.305Z,3.60
2022-12-19T16:26:18.186Z,4.05
2022-12-19T16:28:44.464Z,3.60
2022-12-19T16:31:15.012Z,4.05
2022-12-19T16:33:41.473Z,4.22
2022-12-19T16:36:09.024Z,3.90
2022-12-19T16:38:35.960Z,3.63
2022-12-19T16:41:02.518Z,4.28
2022-12-19T16:43:40.177Z,3.25
2022-12-19T16:46:07.439Z,3.65
2022-12-19T16:48:35.796Z,3.33
2022-12-19T16:51:02.418Z,3.85
2022-12-19T16:53:29.408Z,4.05
2022-12-19T16:55:56.846Z,4.22
2022-12-19T16:58:24.717Z,3.53
2022-12-19T17:00:52.523Z,3.97
2022-12-19T17:03:37.424Z,3.47
2022-12-19T17:06:04.347Z,3.80
2022-12-19T17:08:32.370Z,4.63
2022-12-19T17:10:58.783Z,3.72
2022-12-19T17:13:25.553Z,4.10
2022-12-19T17:15:56.753Z,4.35
2022-12-19T17:18:38.648Z,3.53
2022-12-19T17:21:05.100Z,4.18
2022-12-19T17:23:32.519Z,3.53
2022-12-19T17:26:00.235Z,3.60
2022-12-19T17:28:28.022Z,3.90
2022-12-19T17:30:57.383Z,4.00
2022-12-19T17:33:26.623Z,3.78
2022-12-19T17:35:53.568Z,4.32
2022-12-19T17:38:19.892Z,4.20
2022-12-19T17:40:46.337Z,4.25
2022-12-19T17:43:13.312Z,3.72
2022-12-19T17:45:40.194Z,4.43
2022-12-19T17:48:13.350Z,4.50
2022-12-19T17:50:40.409Z,4.13
2022-12-19T17:53:10.206Z,4.35
2022-12-19T17:55:36.693Z,4.18
2022-12-19T17:58:03.014Z,3.70
2022-12-19T18:00:32.114Z,4.43
2022-12-19T18:03:00.731Z,4.43
2022-12-19T18:05:34.318Z,4.22
2022-12-19T18:08:00.603Z,3.72
2022-12-19T18:10:28.255Z,3.90
2022-12-19T18:12:54.702Z,3.40
2022-12-19T18:15:21.631Z,4.03
2022-12-19T18:17:48.444Z,3.97
2022-12-19T18:20:14.881Z,4.13
2022-12-19T18:22:41.748Z,3.55
2022-12-19T18:25:18.436Z,3.45
2022-12-19T18:27:45.418Z,3.92
2022-12-19T18:30:14.649Z,4.15
2022-12-19T18:32:42.466Z,3.60
2022-12-19T18:35:14.392Z,4.03
2022-12-19T18:37:41.224Z,3.10
2022-12-19T18:40:22.089Z,3.95
2022-12-19T18:42:50.991Z,4.15
2022-12-19T18:45:18.549Z,3.90
2022-12-19T18:47:51.299Z,3.50
2022-12-19T18:50:19.451Z,3.95
2022-12-19T18:52:45.989Z,4.25
2022-12-19T18:55:16.779Z,4.07
2022-12-19T18:57:44.922Z,3.70
2022-12-19T19:00:12.962Z,3.72
2022-12-19T19:02:40.383Z,3.50
2022-12-19T19:05:10.338Z,3.75
2022-12-19T19:07:36.661Z,4.05
2022-12-19T19:10:13.370Z,3.67
2022-12-19T19:12:39.718Z,3.20
2022-12-19T19:15:06.383Z,3.15
2022-12-19T19:17:32.745Z,3.42
2022-12-19T19:19:59.550Z,3.83
2022-12-19T19:22:27.314Z,3.60
2022-12-19T19:24:53.578Z,3.17
2022-12-19T19:27:19.894Z,3.50
2022-12-19T19:29:46.267Z,3.88
2022-12-19T19:32:12.534Z,3.47
2022-12-19T19:34:39.875Z,3.63
2022-12-19T19:37:07.942Z,3.42
2022-12-19T19:39:34.477Z,3.28
2022-12-19T19:42:01.281Z,3.03
2022-12-19T19:44:28.150Z,3.58
2022-12-19T19:46:55.049Z,3.58
2022-12-19T19:49:21.670Z,3.28
2022-12-19T19:51:48.146Z,3.35
2022-12-19T19:54:14.688Z,3.30
2022-12-19T19:56:41.405Z,3.38
2022-12-19T19:59:07.856Z,3.75
2022-12-19T20:01:35.890Z,4.00
2022-12-19T20:04:02.369Z,4.03
2022-12-19T20:06:28.669Z,3.75
2022-12-19T20:08:54.991Z,3.75
2022-12-19T20:11:21.507Z,3.28
2022-12-19T20:13:48.041Z,3.35
2022-12-19T20:16:16.210Z,3.63
2022-12-19T20:18:46.375Z,3.45
2022-12-19T20:21:13.891Z,2.97
2022-12-19T20:23:41.472Z,3.83
2022-12-19T20:26:07.937Z,3.40
2022-12-19T20:28:34.788Z,3.30
2022-12-19T20:31:01.612Z,3.75
2022-12-19T20:33:28.067Z,3.30
2022-12-19T20:36:11.121Z,3.63
2022-12-19T20:38:37.875Z,4.40
2022-12-19T20:41:04.928Z,3.95
2022-12-19T20:43:33.735Z,4.15
2022-12-19T20:46:01.160Z,3.50
2022-12-19T20:48:27.606Z,3.53
2022-12-19T20:50:57.856Z,4.50
2022-12-19T20:53:24.258Z,3.55
2022-12-19T20:56:02.073Z,3.33
2022-12-19T20:58:29.049Z,4.45
2022-12-19T21:01:04.245Z,3.30
2022-12-19T21:03:30.865Z,3.67
2022-12-19T21:05:57.728Z,3.70
2022-12-19T21:08:24.730Z,3.55
2022-12-19T21:10:51.165Z,3.28
2022-12-19T21:13:17.445Z,3.33
2022-12-19T21:15:43.884Z,3.50
2022-12-19T21:18:10.483Z,3.42
2022-12-19T21:20:38.002Z,3.75
2022-12-19T21:23:04.797Z,3.72
2022-12-19T21:25:31.215Z,3.95
2022-12-19T21:27:58.395Z,3.22
2022-12-19T21:30:24.965Z,3.80
2022-12-19T21:32:51.319Z,3.85
2022-12-19T21:35:17.624Z,3.65
2022-12-19T21:37:49.869Z,3.85
2022-12-19T21:40:16.371Z,3.40
2022-12-19T21:42:42.679Z,3.60
2022-12-19T21:45:09.292Z,3.28
2022-12-19T21:47:39.292Z,3.67
2022-12-19T21:50:09.836Z,3.00
2022-12-19T21:52:36.672Z,3.30
2022-12-19T21:55:03.575Z,3.38
2022-12-19T21:57:29.885Z,3.70
2022-12-19T21:59:56.235Z,2.95
2022-12-19T22:02:22.631Z,3.55
2022-12-19T22:04:49.422Z,3.05
2022-12-19T22:07:15.752Z,3.47
2022-12-19T22:09:42.702Z,3.55
2022-12-19T22:12:11.172Z,3.35
2022-12-19T22:14:37.881Z,3.45
2022-12-19T22:17:05.518Z,3.40
2022-12-19T22:19:31.818Z,3.30
2022-12-19T22:21:58.082Z,3.00
2022-12-19T22:24:24.781Z,3.38
2022-12-19T22:26:51.123Z,3.10
2022-12-19T22:29:17.451Z,2.90
2022-12-19T22:31:44.726Z,3.35
2022-12-19T22:34:12.529Z,2.95
2022-12-19T22:36:39.475Z,3.22
2022-12-19T22:39:07.311Z,2.83
2022-12-19T22:41:34.526Z,2.75
2022-12-19T22:44:01.489Z,2.80
2022-12-19T22:46:32.392Z,3.15
2022-12-19T22:48:59.855Z,3.30
2022-12-19T22:51:27.017Z,3.00
2022-12-19T22:53:53.709Z,3.20
2022-12-19T22:56:22.286Z,3.05
2022-12-19T22:58:49.519Z,3.30
2022-12-19T23:01:20.759Z,3.42
2022-12-19T23:03:48.164Z,3.22
2022-12-19T23:06:14.973Z,3.45
2022-12-19T23:08:41.544Z,3.28
2022-12-19T23:11:09.328Z,3.22
2022-12-19T23:13:35.683Z,3.38
2022-12-19T23:16:02.084Z,3.05
2022-12-19T23:18:28.416Z,3.40
2022-12-19T23:21:09.393Z,2.97
2022-12-19T23:23:39.430Z,3.28
2022-12-19T23:26:13.278Z,3.15
2022-12-19T23:28:42.643Z,3.38
2022-12-19T23:31:10.243Z,3.63
2022-12-19T23:33:36.579Z,3.30
2022-12-19T23:36:03.579Z,2.90
2022-12-19T23:38:29.887Z,3.13
2022-12-19T23:41:02.978Z,2.80
2022-12-19T23:43:29.598Z,2.78
2022-12-19T23:45:56.180Z,3.10
2022-12-19T23:48:28.720Z,3.10
2022-12-19T23:51:02.403Z,3.28
2022-12-19T23:53:29.139Z,2.97
2022-12-19T23:55:55.612Z,2.50
2022-12-19T23:58:24.628Z,3.10
